createdAt,value
2018-04-29T00:00:49.996Z,74.84
2018-04-29T00:01:48.898Z,74.37
2018-04-29T00:02:50.946Z,74.46
2018-04-29T00:03:48.839Z,74.55
2018-04-29T00:04:49.912Z,74.55
2018-04-29T00:05:48.819Z,74.84
2018-04-29T00:06:49.829Z,75.22
2018-04-29T00:07:48.748Z,74.84
2018-04-29T00:08:48.817Z,74.65
2018-04-29T00:09:48.709Z,74.37
2018-04-29T00:10:48.732Z,74.46
2018-04-29T00:11:48.637Z,74.46
2018-04-29T00:12:48.636Z,74.65
2018-04-29T00:13:48.601Z,74.46
2018-04-29T00:14:50.588Z,74.55
2018-04-29T00:15:48.549Z,74.74
2018-04-29T00:16:48.570Z,75.66
2018-04-29T00:17:48.492Z,76.23
2018-04-29T00:18:48.576Z,76.23
2018-04-29T00:19:48.456Z,76.33
2018-04-29T00:20:48.490Z,76.42
2018-04-29T00:21:48.382Z,76.14
2018-04-29T00:22:48.395Z,77.00
2018-04-29T00:23:48.342Z,77.00
2018-04-29T00:24:49.330Z,76.90
2018-04-29T00:25:48.312Z,77.28
2018-04-29T00:26:48.325Z,76.81
2018-04-29T00:27:48.266Z,77.76
2018-04-29T00:28:48.343Z,77.95
2018-04-29T00:29:48.210Z,78.23
2018-04-29T00:30:48.247Z,78.23
2018-04-29T00:31:48.145Z,77.86
2018-04-29T00:32:49.202Z,78.14
2018-04-29T00:33:48.099Z,78.23
2018-04-29T00:34:48.176Z,78.05
2018-04-29T00:35:48.038Z,77.95
2018-04-29T00:36:48.080Z,78.05
2018-04-29T00:37:48.010Z,78.33
2018-04-29T00:38:47.994Z,79.00
2018-04-29T00:39:47.948Z,79.57
2018-04-29T00:40:48.017Z,79.38
2018-04-29T00:41:47.915Z,79.38
2018-04-29T00:42:47.933Z,80.05
2018-04-29T00:43:47.865Z,79.86
2018-04-29T00:44:47.938Z,79.53
2018-04-29T00:45:47.816Z,79.96
2018-04-29T00:46:52.555Z,80.30
2018-04-29T00:47:47.749Z,80.49
2018-04-29T00:48:47.760Z,80.87
2018-04-29T00:49:47.711Z,80.58
2018-04-29T00:50:47.778Z,80.96
2018-04-29T00:51:47.656Z,80.87
2018-04-29T00:52:47.702Z,80.87
2018-04-29T00:53:47.612Z,81.25
2018-04-29T00:54:49.647Z,81.35
2018-04-29T00:55:47.580Z,81.63
2018-04-29T00:56:47.608Z,81.35
2018-04-29T00:57:47.512Z,81.15
2018-04-29T00:58:47.525Z,81.44
2018-04-29T00:59:47.464Z,81.82
2018-04-29T01:00:47.604Z,81.92
2018-04-29T01:01:47.428Z,82.01
2018-04-29T01:02:48.472Z,82.01
2018-04-29T01:03:47.341Z,81.73
2018-04-29T01:04:47.360Z,82.01
2018-04-29T01:05:47.304Z,82.11
2018-04-29T01:06:47.403Z,82.01
2018-04-29T01:07:47.262Z,82.30
2018-04-29T01:08:47.276Z,82.68
2018-04-29T01:09:47.223Z,82.78
2018-04-29T01:10:47.203Z,83.16
2018-04-29T01:11:47.162Z,83.69
2018-04-29T01:12:47.210Z,83.54
2018-04-29T01:13:47.105Z,82.97
2018-04-29T01:14:48.134Z,83.31
2018-04-29T01:15:47.060Z,82.97
2018-04-29T01:16:47.139Z,83.06
2018-04-29T01:17:47.016Z,83.35
2018-04-29T01:18:47.045Z,83.31
2018-04-29T01:19:46.954Z,83.44
2018-04-29T01:20:48.004Z,83.02
2018-04-29T01:21:46.908Z,83.21
2018-04-29T01:22:49.026Z,83.88
2018-04-29T01:23:46.854Z,83.69
2018-04-29T01:24:46.878Z,83.69
2018-04-29T01:25:46.816Z,83.59
2018-04-29T01:26:46.887Z,83.97
2018-04-29T01:27:46.753Z,83.78
2018-04-29T01:28:46.813Z,83.50
2018-04-29T01:29:46.716Z,83.40
2018-04-29T01:30:46.713Z,83.97
2018-04-29T01:31:46.673Z,83.97
2018-04-29T01:32:46.737Z,83.88
2018-04-29T01:33:46.604Z,84.45
2018-04-29T01:34:46.634Z,84.16
2018-04-29T01:35:46.552Z,84.16
2018-04-29T01:36:46.556Z,84.26
2018-04-29T01:37:46.511Z,85.02
2018-04-29T01:38:46.557Z,85.69
2018-04-29T01:39:46.466Z,85.17
2018-04-29T01:40:46.467Z,85.08
2018-04-29T01:41:46.406Z,85.55
2018-04-29T01:42:46.525Z,85.93
2018-04-29T01:43:46.354Z,85.36
2018-04-29T01:44:46.402Z,85.64
2018-04-29T01:45:46.314Z,86.12
2018-04-29T01:46:46.307Z,86.32
2018-04-29T01:47:46.259Z,86.41
2018-04-29T01:48:46.331Z,86.69
2018-04-29T01:49:46.197Z,86.88
2018-04-29T01:50:46.253Z,85.93
2018-04-29T01:51:46.159Z,85.93
2018-04-29T01:52:46.291Z,86.12
2018-04-29T01:53:46.112Z,86.79
2018-04-29T01:54:47.190Z,86.98
2018-04-29T01:55:46.066Z,87.27
2018-04-29T01:56:46.078Z,87.84
2018-04-29T01:57:46.026Z,88.22
2018-04-29T01:58:46.078Z,87.84
2018-04-29T01:59:45.994Z,87.93
2018-04-29T02:00:46.001Z,88.22
2018-04-29T02:01:45.925Z,88.03
2018-04-29T02:02:45.926Z,88.03
2018-04-29T02:03:45.866Z,87.98
2018-04-29T02:04:45.938Z,87.84
2018-04-29T02:05:45.805Z,86.84
2018-04-29T02:06:47.896Z,87.79
2018-04-29T02:07:45.773Z,87.79
2018-04-29T02:08:45.844Z,88.27
2018-04-29T02:09:45.714Z,88.75
2018-04-29T02:10:45.779Z,88.65
2018-04-29T02:11:45.673Z,89.22
2018-04-29T02:12:45.681Z,88.84
2018-04-29T02:13:45.617Z,89.61
2018-04-29T02:14:46.609Z,89.41
2018-04-29T02:15:45.561Z,89.41
2018-04-29T02:16:45.558Z,89.41
2018-04-29T02:17:45.509Z,89.41
2018-04-29T02:18:45.619Z,89.03
2018-04-29T02:19:45.455Z,89.70
2018-04-29T02:20:45.481Z,89.22
2018-04-29T02:21:45.391Z,89.51
2018-04-29T02:22:45.406Z,89.98
2018-04-29T02:23:45.358Z,89.70
2018-04-29T02:24:45.406Z,89.70
2018-04-29T02:25:45.317Z,89.13
2018-04-29T02:26:45.325Z,89.61
2018-04-29T02:27:45.261Z,89.70
2018-04-29T02:28:45.334Z,89.89
2018-04-29T02:29:45.198Z,90.17
2018-04-29T02:30:46.270Z,90.36
2018-04-29T02:31:45.147Z,90.17
2018-04-29T02:32:45.148Z,90.13
2018-04-29T02:33:45.108Z,90.56
2018-04-29T02:34:45.162Z,90.32
2018-04-29T02:35:45.075Z,90.03
2018-04-29T02:36:45.109Z,90.27
2018-04-29T02:37:45.010Z,90.13
2018-04-29T02:38:44.996Z,89.94
2018-04-29T02:39:44.977Z,91.08
2018-04-29T02:40:46.028Z,90.61
2018-04-29T02:41:44.920Z,90.70
2018-04-29T02:42:44.976Z,91.08
2018-04-29T02:43:44.889Z,90.99
2018-04-29T02:44:44.889Z,91.17
2018-04-29T02:45:44.823Z,91.84
2018-04-29T02:46:44.912Z,92.32
2018-04-29T02:47:44.748Z,92.13
2018-04-29T02:48:44.850Z,92.13
2018-04-29T02:49:44.705Z,91.84
2018-04-29T02:50:46.785Z,92.03
2018-04-29T02:51:44.646Z,92.03
2018-04-29T02:52:44.761Z,92.89
2018-04-29T02:53:44.603Z,93.27
2018-04-29T02:54:45.682Z,92.79
2018-04-29T02:55:44.554Z,93.70
2018-04-29T02:56:44.559Z,93.65
2018-04-29T02:57:44.516Z,93.41
2018-04-29T02:58:44.546Z,93.32
2018-04-29T02:59:44.461Z,93.41
2018-04-29T03:00:44.523Z,93.41
2018-04-29T03:01:44.403Z,92.84
2018-04-29T03:02:44.443Z,90.94
2018-04-29T03:03:44.361Z,91.51
2018-04-29T03:04:44.474Z,90.84
2018-04-29T03:05:44.305Z,91.80
2018-04-29T03:06:46.350Z,92.56
2018-04-29T03:07:44.290Z,92.75
2018-04-29T03:08:44.287Z,93.70
2018-04-29T03:09:44.203Z,94.08
2018-04-29T03:10:44.279Z,93.98
2018-04-29T03:11:44.152Z,93.89
2018-04-29T03:12:44.187Z,94.27
2018-04-29T03:13:44.166Z,94.18
2018-04-29T03:14:44.087Z,94.18
2018-04-29T03:15:44.057Z,94.27
2018-04-29T03:16:44.102Z,94.46
2018-04-29T03:17:43.990Z,93.70
2018-04-29T03:18:44.040Z,93.89
2018-04-29T03:19:43.977Z,93.89
2018-04-29T03:20:43.931Z,93.23
2018-04-29T03:21:43.932Z,93.32
2018-04-29T03:22:43.981Z,93.70
2018-04-29T03:23:43.881Z,93.04
2018-04-29T03:24:43.855Z,94.18
2018-04-29T03:25:43.802Z,93.98
2018-04-29T03:26:43.868Z,94.27
2018-04-29T03:27:43.771Z,94.84
2018-04-29T03:28:43.800Z,94.37
2018-04-29T03:29:43.703Z,94.84
2018-04-29T03:30:43.712Z,94.37
2018-04-29T03:31:43.695Z,94.84
2018-04-29T03:32:43.712Z,95.22
2018-04-29T03:33:43.608Z,94.74
2018-04-29T03:34:43.620Z,94.74
2018-04-29T03:35:43.569Z,94.74
2018-04-29T03:36:43.540Z,94.93
2018-04-29T03:37:43.493Z,95.32
2018-04-29T03:38:43.552Z,94.60
2018-04-29T03:39:43.450Z,94.93
2018-04-29T03:40:43.498Z,94.65
2018-04-29T03:41:43.407Z,94.60
2018-04-29T03:42:43.478Z,94.27
2018-04-29T03:43:43.350Z,94.37
2018-04-29T03:44:43.381Z,94.18
2018-04-29T03:45:43.308Z,94.60
2018-04-29T03:46:43.289Z,94.93
2018-04-29T03:47:43.236Z,94.46
2018-04-29T03:48:43.347Z,94.84
2018-04-29T03:49:43.193Z,95.17
2018-04-29T03:50:44.253Z,95.17
2018-04-29T03:51:43.172Z,95.56
2018-04-29T03:52:43.122Z,94.70
2018-04-29T03:53:43.117Z,94.51
2018-04-29T03:54:48.219Z,94.51
2018-04-29T03:55:43.059Z,94.89
2018-04-29T03:56:43.058Z,94.70
2018-04-29T03:57:43.020Z,94.42
2018-04-29T03:58:44.027Z,94.42
2018-04-29T03:59:42.946Z,94.70
2018-04-29T04:00:42.983Z,94.60
2018-04-29T04:01:51.282Z,94.32
2018-04-29T04:02:42.976Z,94.60
2018-04-29T04:03:42.853Z,93.84
2018-04-29T04:04:42.918Z,93.65
2018-04-29T04:05:42.806Z,93.84
2018-04-29T04:06:42.791Z,94.13
2018-04-29T04:07:42.740Z,92.99
2018-04-29T04:08:42.838Z,92.03
2018-04-29T04:09:42.789Z,93.27
2018-04-29T04:10:42.714Z,93.75
2018-04-29T04:11:42.637Z,93.46
2018-04-29T04:12:42.628Z,94.03
2018-04-29T04:13:42.596Z,93.46
2018-04-29T04:14:42.646Z,93.65
2018-04-29T04:15:42.539Z,95.08
2018-04-29T04:16:42.550Z,94.79
2018-04-29T04:17:42.485Z,94.70
2018-04-29T04:18:42.600Z,94.51
2018-04-29T04:19:42.440Z,95.17
2018-04-29T04:20:47.101Z,95.08
2018-04-29T04:21:42.373Z,94.89
2018-04-29T04:22:42.385Z,94.89
2018-04-29T04:23:42.353Z,94.22
2018-04-29T04:24:42.415Z,94.03
2018-04-29T04:25:42.288Z,94.13
2018-04-29T04:26:43.068Z,94.42
2018-04-29T04:27:42.234Z,94.32
2018-04-29T04:28:42.230Z,94.22
2018-04-29T04:29:42.190Z,93.46
2018-04-29T04:30:43.259Z,93.27
2018-04-29T04:31:42.145Z,93.65
2018-04-29T04:32:42.145Z,93.75
2018-04-29T04:33:42.089Z,93.94
2018-04-29T04:34:42.165Z,93.84
2018-04-29T04:35:42.030Z,93.84
2018-04-29T04:36:44.128Z,93.84
2018-04-29T04:37:41.967Z,93.75
2018-04-29T04:38:42.970Z,93.27
2018-04-29T04:39:41.921Z,93.27
2018-04-29T04:40:41.977Z,93.27
2018-04-29T04:41:41.885Z,93.18
2018-04-29T04:42:42.889Z,93.84
2018-04-29T04:43:41.848Z,94.03
2018-04-29T04:44:42.903Z,93.70
2018-04-29T04:45:41.793Z,93.94
2018-04-29T04:46:41.773Z,94.22
2018-04-29T04:47:41.721Z,94.18
2018-04-29T04:48:41.849Z,94.84
2018-04-29T04:49:41.669Z,94.84
2018-04-29T04:50:42.747Z,94.42
2018-04-29T04:51:41.650Z,95.12
2018-04-29T04:52:42.643Z,95.60
2018-04-29T04:53:41.573Z,95.79
2018-04-29T04:54:41.633Z,95.51
2018-04-29T04:55:41.529Z,95.12
2018-04-29T04:56:41.561Z,94.74
2018-04-29T04:57:41.503Z,94.74
2018-04-29T04:58:41.557Z,94.93
2018-04-29T04:59:41.428Z,94.56
2018-04-29T05:00:41.473Z,95.32
2018-04-29T05:01:41.393Z,95.60
2018-04-29T05:02:46.199Z,94.93
2018-04-29T05:03:41.346Z,95.22
2018-04-29T05:04:41.393Z,95.41
2018-04-29T05:05:41.275Z,95.22
2018-04-29T05:06:42.327Z,95.32
2018-04-29T05:07:41.228Z,95.03
2018-04-29T05:08:46.144Z,94.46
2018-04-29T05:09:41.181Z,95.51
2018-04-29T05:10:42.271Z,94.65
2018-04-29T05:11:41.117Z,95.12
2018-04-29T05:12:41.151Z,95.70
2018-04-29T05:13:41.119Z,95.41
2018-04-29T05:14:43.132Z,96.36
2018-04-29T05:15:41.015Z,96.26
2018-04-29T05:16:41.059Z,95.70
2018-04-29T05:17:41.006Z,95.51
2018-04-29T05:18:40.969Z,95.51
2018-04-29T05:19:40.924Z,95.22
2018-04-29T05:20:40.988Z,95.51
2018-04-29T05:21:40.868Z,95.70
2018-04-29T05:22:40.938Z,95.60
2018-04-29T05:23:40.822Z,94.89
2018-04-29T05:24:40.807Z,95.08
2018-04-29T05:25:40.764Z,94.89
2018-04-29T05:26:46.656Z,94.60
2018-04-29T05:27:40.735Z,94.03
2018-04-29T05:28:40.738Z,93.94
2018-04-29T05:29:40.674Z,93.74
2018-04-29T05:30:41.766Z,93.27
2018-04-29T05:31:40.602Z,92.99
2018-04-29T05:32:40.667Z,92.32
2018-04-29T05:33:40.570Z,92.65
2018-04-29T05:34:40.559Z,93.03
2018-04-29T05:35:40.491Z,92.36
2018-04-29T05:36:40.562Z,91.89
2018-04-29T05:37:40.447Z,92.08
2018-04-29T05:38:40.480Z,91.51
2018-04-29T05:39:40.408Z,92.27
2018-04-29T05:40:42.440Z,92.08
2018-04-29T05:41:40.378Z,92.27
2018-04-29T05:42:41.417Z,91.99
2018-04-29T05:43:40.309Z,91.51
2018-04-29T05:44:40.312Z,92.27
2018-04-29T05:45:40.251Z,90.98
2018-04-29T05:46:40.338Z,91.46
2018-04-29T05:47:40.207Z,91.36
2018-04-29T05:48:40.253Z,91.55
2018-04-29T05:49:40.133Z,91.08
2018-04-29T05:50:40.136Z,90.89
2018-04-29T05:51:40.118Z,90.60
2018-04-29T05:52:40.154Z,90.12
2018-04-29T05:53:40.031Z,90.26
2018-04-29T05:54:40.081Z,90.22
2018-04-29T05:55:40.010Z,90.17
2018-04-29T05:56:41.026Z,89.98
2018-04-29T05:57:39.944Z,89.89
2018-04-29T05:58:41.943Z,89.50
2018-04-29T05:59:39.899Z,88.88
2018-04-29T06:00:44.609Z,88.78
2018-04-29T06:01:39.840Z,87.74
2018-04-29T06:02:39.933Z,87.64
2018-04-29T06:03:39.793Z,87.16
2018-04-29T06:04:41.801Z,87.16
2018-04-29T06:05:39.743Z,87.26
2018-04-29T06:06:39.861Z,86.40
2018-04-29T06:07:39.693Z,86.30
2018-04-29T06:08:39.784Z,86.11
2018-04-29T06:09:39.634Z,85.54
2018-04-29T06:10:40.710Z,84.88
2018-04-29T06:11:39.583Z,85.06
2018-04-29T06:12:39.578Z,85.06
2018-04-29T06:13:39.529Z,85.35
2018-04-29T06:14:39.599Z,85.39
2018-04-29T06:15:39.479Z,84.82
2018-04-29T06:16:40.540Z,85.77
2018-04-29T06:17:39.430Z,85.77
2018-04-29T06:18:39.513Z,85.49
2018-04-29T06:19:39.372Z,84.72
2018-04-29T06:20:39.409Z,83.77
2018-04-29T06:21:39.322Z,84.44
2018-04-29T06:22:41.378Z,83.62
2018-04-29T06:23:39.265Z,83.14
2018-04-29T06:24:39.298Z,83.43
2018-04-29T06:25:39.215Z,82.95
2018-04-29T06:26:39.215Z,81.71
2018-04-29T06:27:39.180Z,82.67
2018-04-29T06:28:39.221Z,82.57
2018-04-29T06:29:39.110Z,81.71
2018-04-29T06:30:39.131Z,82.38
2018-04-29T06:31:39.068Z,82.19
2018-04-29T06:32:40.073Z,81.14
2018-04-29T06:33:39.025Z,81.81
2018-04-29T06:34:39.073Z,81.81
2018-04-29T06:35:38.976Z,80.90
2018-04-29T06:36:38.966Z,80.47
2018-04-29T06:37:38.907Z,80.51
2018-04-29T06:38:38.985Z,80.61
2018-04-29T06:39:38.861Z,80.04
2018-04-29T06:40:38.834Z,80.13
2018-04-29T06:41:38.827Z,79.36
2018-04-29T06:42:39.801Z,79.75
2018-04-29T06:43:38.758Z,80.22
2018-04-29T06:44:39.735Z,80.61
2018-04-29T06:45:38.714Z,79.36
2018-04-29T06:46:38.698Z,79.94
2018-04-29T06:47:38.657Z,79.99
2018-04-29T06:48:38.629Z,79.46
2018-04-29T06:49:38.612Z,79.14
2018-04-29T06:50:38.595Z,79.56
2018-04-29T06:51:38.574Z,79.46
2018-04-29T06:52:38.526Z,79.46
2018-04-29T06:53:38.505Z,78.89
2018-04-29T06:54:38.482Z,78.89
2018-04-29T06:55:38.442Z,79.27
2018-04-29T06:56:44.111Z,79.22
2018-04-29T06:57:38.403Z,79.02
2018-04-29T06:58:38.376Z,77.87
2018-04-29T06:59:38.358Z,77.69
2018-04-29T07:00:38.316Z,77.50
2018-04-29T07:01:38.302Z,77.30
2018-04-29T07:02:38.324Z,77.30
2018-04-29T07:03:38.244Z,77.30
2018-04-29T07:04:38.230Z,77.72
2018-04-29T07:05:38.200Z,77.53
2018-04-29T07:06:38.193Z,77.44
2018-04-29T07:07:38.138Z,77.53
2018-04-29T07:08:38.134Z,76.86
2018-04-29T07:09:38.100Z,76.57
2018-04-29T07:10:38.072Z,77.44
2018-04-29T07:11:38.038Z,76.20
2018-04-29T07:12:38.044Z,75.24
2018-04-29T07:13:37.988Z,75.85
2018-04-29T07:14:37.981Z,75.47
2018-04-29T07:15:37.942Z,75.85
2018-04-29T07:16:37.953Z,74.99
2018-04-29T07:17:37.885Z,74.13
2018-04-29T07:18:38.055Z,73.55
2018-04-29T07:19:37.842Z,73.40
2018-04-29T07:20:38.879Z,73.30
2018-04-29T07:21:37.792Z,72.63
2018-04-29T07:22:37.874Z,72.83
2018-04-29T07:23:37.743Z,72.54
2018-04-29T07:24:38.801Z,72.44
2018-04-29T07:25:37.688Z,72.16
2018-04-29T07:26:37.673Z,72.83
2018-04-29T07:27:37.634Z,72.86
2018-04-29T07:28:37.769Z,72.48
2018-04-29T07:29:37.575Z,72.25
2018-04-29T07:30:37.599Z,71.87
2018-04-29T07:31:37.539Z,72.34
2018-04-29T07:32:37.612Z,72.34
2018-04-29T07:33:37.480Z,72.67
2018-04-29T07:34:37.519Z,72.29
2018-04-29T07:35:37.427Z,72.19
2018-04-29T07:36:38.448Z,71.14
2018-04-29T07:37:37.389Z,71.52
2018-04-29T07:38:37.342Z,71.14
2018-04-29T07:39:37.325Z,71.52
2018-04-29T07:40:37.356Z,71.42
2018-04-29T07:41:37.286Z,71.81
2018-04-29T07:42:37.267Z,70.95
2018-04-29T07:43:37.221Z,70.95
2018-04-29T07:44:37.202Z,71.71
2018-04-29T07:45:37.190Z,71.77
2018-04-29T07:46:37.193Z,72.44
2018-04-29T07:47:37.121Z,71.87
2018-04-29T07:48:37.094Z,72.16
2018-04-29T07:49:37.130Z,72.34
2018-04-29T07:50:37.047Z,72.25
2018-04-29T07:51:37.127Z,73.40
2018-04-29T07:52:37.032Z,73.21
2018-04-29T07:53:37.039Z,73.88
2018-04-29T07:54:36.948Z,72.44
2018-04-29T07:55:36.928Z,72.16
2018-04-29T07:56:36.945Z,73.40
2018-04-29T07:57:36.867Z,73.59
2018-04-29T07:58:38.909Z,72.73
2018-04-29T07:59:36.825Z,75.22
2018-04-29T08:00:36.876Z,73.94
2018-04-29T08:01:36.762Z,73.17
2018-04-29T08:02:36.732Z,73.08
2018-04-29T08:03:36.821Z,73.36
2018-04-29T08:04:36.687Z,72.25
2018-04-29T08:05:38.760Z,72.41
2018-04-29T08:06:36.625Z,72.69
2018-04-29T08:07:36.660Z,72.63
2018-04-29T08:08:36.613Z,72.44
2018-04-29T08:09:37.656Z,73.21
2018-04-29T08:10:36.534Z,74.74
2018-04-29T08:11:36.547Z,74.26
2018-04-29T08:12:36.472Z,72.60
2018-04-29T08:13:36.559Z,72.41
2018-04-29T08:14:36.428Z,72.41
2018-04-29T08:15:36.574Z,76.52
2018-04-29T08:16:36.379Z,76.23
2018-04-29T08:17:36.441Z,73.75
2018-04-29T08:18:36.323Z,74.99
2018-04-29T08:19:36.399Z,76.23
2018-04-29T08:20:36.284Z,75.47
2018-04-29T08:21:37.327Z,75.47
2018-04-29T08:22:36.300Z,75.09
2018-04-29T08:23:36.367Z,74.80
2018-04-29T08:24:36.170Z,74.99
2018-04-29T08:25:36.258Z,74.99
2018-04-29T08:26:36.119Z,75.66
2018-04-29T08:27:36.144Z,76.14
2018-04-29T08:28:36.074Z,76.52
2018-04-29T08:29:36.069Z,77.57
2018-04-29T08:30:36.063Z,78.43
2018-04-29T08:31:35.984Z,78.34
2018-04-29T08:32:36.084Z,78.81
2018-04-29T08:33:35.948Z,79.68
2018-04-29T08:34:35.914Z,80.06
2018-04-29T08:35:35.888Z,80.92
2018-04-29T08:36:35.905Z,81.49
2018-04-29T08:37:35.837Z,80.73
2018-04-29T08:38:36.832Z,80.54
2018-04-29T08:39:35.792Z,80.16
2018-04-29T08:40:35.820Z,80.82
2018-04-29T08:41:35.743Z,80.16
2018-04-29T08:42:35.743Z,79.68
2018-04-29T08:43:35.705Z,79.00
2018-04-29T08:44:35.769Z,79.10
2018-04-29T08:45:35.664Z,78.43
2018-04-29T08:46:35.671Z,79.29
2018-04-29T08:47:35.591Z,78.95
2018-04-29T08:48:35.710Z,78.66
2018-04-29T08:49:35.538Z,78.86
2018-04-29T08:50:35.605Z,79.08
2018-04-29T08:51:35.494Z,76.69
2018-04-29T08:52:35.506Z,76.69
2018-04-29T08:53:35.448Z,75.73
2018-04-29T08:54:35.528Z,76.69
2018-04-29T08:55:35.377Z,76.60
2018-04-29T08:56:35.366Z,76.21
2018-04-29T08:57:36.354Z,75.79
2018-04-29T08:58:35.310Z,77.65
2018-04-29T08:59:35.341Z,76.02
2018-04-29T09:00:35.261Z,76.69
2018-04-29T09:01:35.253Z,74.87
2018-04-29T09:02:35.274Z,76.06
2018-04-29T09:03:35.303Z,77.50
2018-04-29T09:04:35.185Z,75.68
2018-04-29T09:05:35.182Z,75.35
2018-04-29T09:06:35.120Z,74.77
2018-04-29T09:07:35.206Z,75.73
2018-04-29T09:08:35.057Z,75.35
2018-04-29T09:09:37.050Z,74.87
2018-04-29T09:10:35.019Z,75.35
2018-04-29T09:11:35.034Z,76.31
2018-04-29T09:12:35.045Z,75.93
2018-04-29T09:13:35.952Z,75.70
2018-04-29T09:14:34.899Z,75.89
2018-04-29T09:15:34.944Z,77.13
2018-04-29T09:16:34.867Z,77.13
2018-04-29T09:17:34.905Z,76.37
2018-04-29T09:18:34.799Z,77.08
2018-04-29T09:19:34.895Z,76.08
2018-04-29T09:20:34.755Z,76.84
2018-04-29T09:21:34.801Z,76.60
2018-04-29T09:22:34.739Z,76.98
2018-04-29T09:23:34.687Z,76.79
2018-04-29T09:24:34.641Z,76.31
2018-04-29T09:25:34.699Z,75.16
2018-04-29T09:26:34.613Z,74.62
2018-04-29T09:27:34.574Z,75.20
2018-04-29T09:28:34.625Z,75.96
2018-04-29T09:29:34.521Z,76.15
2018-04-29T09:30:34.536Z,76.35
2018-04-29T09:31:34.454Z,76.35
2018-04-29T09:32:34.570Z,72.61
2018-04-29T09:33:34.450Z,72.90
2018-04-29T09:34:34.396Z,74.01
2018-04-29T09:35:34.385Z,75.64
2018-04-29T09:36:34.340Z,76.40
2018-04-29T09:37:34.315Z,77.08
2018-04-29T09:38:34.375Z,74.87
2018-04-29T09:39:34.257Z,74.77
2018-04-29T09:40:34.250Z,73.59
2018-04-29T09:41:34.212Z,73.59
2018-04-29T09:42:34.198Z,73.97
2018-04-29T09:43:34.220Z,76.65
2018-04-29T09:44:34.132Z,77.04
2018-04-29T09:45:34.114Z,79.14
2018-04-29T09:46:34.085Z,77.51
2018-04-29T09:47:34.080Z,77.00
2018-04-29T09:48:34.079Z,78.05
2018-04-29T09:49:34.036Z,77.86
2018-04-29T09:50:33.998Z,79.62
2018-04-29T09:51:33.979Z,78.91
2018-04-29T09:52:33.973Z,78.47
2018-04-29T09:53:33.944Z,80.00
2018-04-29T09:54:33.991Z,81.54
2018-04-29T09:55:33.856Z,82.30
2018-04-29T09:56:33.891Z,79.24
2018-04-29T09:57:33.801Z,79.81
2018-04-29T09:58:33.793Z,80.10
2018-04-29T09:59:33.821Z,80.77
2018-04-29T10:00:33.746Z,80.77
2018-04-29T10:01:33.828Z,80.10
2018-04-29T10:02:33.684Z,79.52
2018-04-29T10:03:33.797Z,80.19
2018-04-29T10:04:33.643Z,79.18
2018-04-29T10:05:34.684Z,78.03
2018-04-29T10:06:33.602Z,77.55
2018-04-29T10:07:34.576Z,77.50
2018-04-29T10:08:33.532Z,78.74
2018-04-29T10:09:33.625Z,79.22
2018-04-29T10:10:33.481Z,78.36
2018-04-29T10:11:33.496Z,77.50
2018-04-29T10:12:33.418Z,76.44
2018-04-29T10:13:35.485Z,75.39
2018-04-29T10:14:33.377Z,75.48
2018-04-29T10:15:33.366Z,75.77
2018-04-29T10:16:33.368Z,75.62
2018-04-29T10:17:33.310Z,76.06
2018-04-29T10:18:33.308Z,75.10
2018-04-29T10:19:33.327Z,75.04
2018-04-29T10:20:33.250Z,75.20
2018-04-29T10:21:33.203Z,74.76
2018-04-29T10:22:33.174Z,74.62
2018-04-29T10:23:33.291Z,75.10
2018-04-29T10:24:33.147Z,75.04
2018-04-29T10:25:33.092Z,75.10
2018-04-29T10:26:33.083Z,75.20
2018-04-29T10:27:33.044Z,75.33
2018-04-29T10:28:33.027Z,75.62
2018-04-29T10:29:33.025Z,75.04
2018-04-29T10:30:32.975Z,73.16
2018-04-29T10:31:32.940Z,74.02
2018-04-29T10:32:32.913Z,74.35
2018-04-29T10:33:32.908Z,73.00
2018-04-29T10:34:32.858Z,72.33
2018-04-29T10:35:33.967Z,70.99
2018-04-29T10:36:32.821Z,71.28
2018-04-29T10:37:32.842Z,68.98
2018-04-29T10:38:32.757Z,69.36
2018-04-29T10:39:32.853Z,70.13
2018-04-29T10:40:32.735Z,71.28
2018-04-29T10:41:33.813Z,71.66
2018-04-29T10:42:32.666Z,70.61
2018-04-29T10:43:32.698Z,71.22
2018-04-29T10:44:32.684Z,68.91
2018-04-29T10:45:32.587Z,67.09
2018-04-29T10:46:32.566Z,66.71
2018-04-29T10:47:32.534Z,66.52
2018-04-29T10:48:32.508Z,66.42
2018-04-29T10:49:32.484Z,66.61
2018-04-29T10:50:32.453Z,65.56
2018-04-29T10:51:32.448Z,66.03
2018-04-29T10:52:32.445Z,65.36
2018-04-29T10:53:32.381Z,64.59
2018-04-29T10:54:32.360Z,65.27
2018-04-29T10:55:32.345Z,65.36
2018-04-29T10:56:32.418Z,65.36
2018-04-29T10:57:32.273Z,64.79
2018-04-29T10:58:32.278Z,63.16
2018-04-29T10:59:32.273Z,64.59
2018-04-29T11:00:32.207Z,65.78
2018-04-29T11:01:32.178Z,64.50
2018-04-29T11:02:32.193Z,64.59
2018-04-29T11:03:32.300Z,64.89
2018-04-29T11:04:32.130Z,65.75
2018-04-29T11:05:32.201Z,65.75
2018-04-29T11:06:32.064Z,64.40
2018-04-29T11:07:32.259Z,65.84
2018-04-29T11:08:32.014Z,65.84
2018-04-29T11:09:32.141Z,64.89
2018-04-29T11:10:31.979Z,63.57
2018-04-29T11:11:33.061Z,63.19
2018-04-29T11:12:31.921Z,62.81
2018-04-29T11:13:32.066Z,61.78
2018-04-29T11:14:31.854Z,63.32
2018-04-29T11:15:31.960Z,60.91
2018-04-29T11:16:31.807Z,60.85
2018-04-29T11:17:31.782Z,60.85
2018-04-29T11:18:31.884Z,61.94
2018-04-29T11:19:31.753Z,60.78
2018-04-29T11:20:31.903Z,60.01
2018-04-29T11:21:31.677Z,60.17
2018-04-29T11:22:31.810Z,60.46
2018-04-29T11:23:31.628Z,59.50
2018-04-29T11:24:31.736Z,60.17
2018-04-29T11:25:31.596Z,60.88
2018-04-29T11:26:32.804Z,60.21
2018-04-29T11:27:31.595Z,60.11
2018-04-29T11:28:31.673Z,59.63
2018-04-29T11:29:31.524Z,60.21
2018-04-29T11:30:31.676Z,59.24
2018-04-29T11:31:31.482Z,57.22
2018-04-29T11:32:31.610Z,56.45
2018-04-29T11:33:31.407Z,57.70
2018-04-29T11:34:31.538Z,57.90
2018-04-29T11:35:31.338Z,56.81
2018-04-29T11:36:31.538Z,57.97
2018-04-29T11:37:31.280Z,58.15
2018-04-29T11:38:31.418Z,57.22
2018-04-29T11:39:31.244Z,55.68
2018-04-29T11:40:31.493Z,56.65
2018-04-29T11:41:31.196Z,57.13
2018-04-29T11:42:31.149Z,58.28
2018-04-29T11:43:31.334Z,56.55
2018-04-29T11:44:31.111Z,56.96
2018-04-29T11:45:31.247Z,54.24
2018-04-29T11:46:31.070Z,54.63
2018-04-29T11:47:31.165Z,55.59
2018-04-29T11:48:31.037Z,54.91
2018-04-29T11:49:31.190Z,55.59
2018-04-29T11:50:30.956Z,55.49
2018-04-29T11:51:31.090Z,55.13
2018-04-29T11:52:30.957Z,54.65
2018-04-29T11:53:31.113Z,54.27
2018-04-29T11:54:30.864Z,53.78
2018-04-29T11:55:31.030Z,54.58
2018-04-29T11:56:30.818Z,55.55
2018-04-29T11:57:30.920Z,53.81
2018-04-29T11:58:30.766Z,53.27
2018-04-29T11:59:30.935Z,54.90
2018-04-29T12:00:30.731Z,52.20
2018-04-29T12:01:30.846Z,52.01
2018-04-29T12:02:30.764Z,53.27
2018-04-29T12:03:30.781Z,52.87
2018-04-29T12:04:30.620Z,52.97
2018-04-29T12:05:30.667Z,52.69
2018-04-29T12:06:30.619Z,52.59
2018-04-29T12:07:31.610Z,49.99
2018-04-29T12:08:30.592Z,50.11
2018-04-29T12:09:30.597Z,50.98
2018-04-29T12:10:30.473Z,51.36
2018-04-29T12:11:30.524Z,51.07
2018-04-29T12:12:30.450Z,52.13
2018-04-29T12:13:30.418Z,51.07
2018-04-29T12:14:30.371Z,52.52
2018-04-29T12:15:30.369Z,51.46
2018-04-29T12:16:30.327Z,50.69
2018-04-29T12:17:30.391Z,51.07
2018-04-29T12:18:30.353Z,51.94
2018-04-29T12:19:30.288Z,50.98
2018-04-29T12:20:30.245Z,52.01
2018-04-29T12:21:30.204Z,51.92
2018-04-29T12:22:30.276Z,51.72
2018-04-29T12:23:30.184Z,51.53
2018-04-29T12:24:30.251Z,51.34
2018-04-29T12:25:30.233Z,52.61
2018-04-29T12:26:30.095Z,51.56
2018-04-29T12:27:30.104Z,52.13
2018-04-29T12:28:30.025Z,52.64
2018-04-29T12:29:30.175Z,51.20
2018-04-29T12:30:29.969Z,51.68
2018-04-29T12:31:30.041Z,51.97
2018-04-29T12:32:29.940Z,51.10
2018-04-29T12:33:29.940Z,50.93
2018-04-29T12:34:29.891Z,49.77
2018-04-29T12:35:30.974Z,49.19
2018-04-29T12:36:29.834Z,49.29
2018-04-29T12:37:29.855Z,50.84
2018-04-29T12:38:29.782Z,49.48
2018-04-29T12:39:30.817Z,49.46
2018-04-29T12:40:29.771Z,49.94
2018-04-29T12:41:29.806Z,49.37
2018-04-29T12:42:29.715Z,49.65
2018-04-29T12:43:29.723Z,51.07
2018-04-29T12:44:29.670Z,51.84
2018-04-29T12:45:30.772Z,52.91
2018-04-29T12:46:29.599Z,53.29
2018-04-29T12:47:29.637Z,53.19
2018-04-29T12:48:29.567Z,52.42
2018-04-29T12:49:29.521Z,51.07
2018-04-29T12:50:29.497Z,52.23
2018-04-29T12:51:29.674Z,51.34
2018-04-29T12:52:29.463Z,52.01